createdAt,value
2023-05-10T00:01:44.282Z,1.95
2023-05-10T00:04:11.241Z,1.92
2023-05-10T00:06:40.118Z,1.52
2023-05-10T00:09:09.032Z,1.85
2023-05-10T00:11:35.872Z,2.20
2023-05-10T00:14:04.797Z,2.03
2023-05-10T00:16:33.605Z,1.95
2023-05-10T00:19:02.463Z,2.08
2023-05-10T00:21:29.470Z,1.80
2023-05-10T00:23:56.162Z,1.67
2023-05-10T00:26:24.887Z,1.95
2023-05-10T00:28:51.434Z,2.40
2023-05-10T00:31:20.119Z,1.90
2023-05-10T00:33:46.696Z,2.28
2023-05-10T00:36:13.278Z,1.77
2023-05-10T00:38:39.821Z,1.98
2023-05-10T00:41:10.905Z,1.95
2023-05-10T00:43:39.755Z,2.20
2023-05-10T00:46:07.051Z,1.70
2023-05-10T00:48:36.374Z,1.90
2023-05-10T00:51:07.043Z,2.00
2023-05-10T00:53:36.421Z,2.33
2023-05-10T00:56:04.246Z,2.00
2023-05-10T00:58:36.072Z,2.17
2023-05-10T01:01:08.438Z,1.98
2023-05-10T01:03:37.713Z,1.90
2023-05-10T01:06:06.892Z,2.03
2023-05-10T01:08:38.790Z,1.65
2023-05-10T01:11:13.394Z,1.67
2023-05-10T01:13:43.339Z,1.65
2023-05-10T01:16:12.646Z,1.60
2023-05-10T01:18:42.076Z,1.88
2023-05-10T01:21:42.869Z,1.73
2023-05-10T01:24:46.913Z,1.85
2023-05-10T01:27:26.041Z,2.00
2023-05-10T01:30:14.017Z,2.00
2023-05-10T01:32:56.791Z,1.90
2023-05-10T01:35:33.570Z,2.00
2023-05-10T01:38:18.021Z,2.20
2023-05-10T01:41:12.266Z,1.90
2023-05-10T01:43:49.599Z,1.83
2023-05-10T01:46:21.694Z,2.20
2023-05-10T01:48:55.134Z,2.30
2023-05-10T01:51:26.241Z,2.13
2023-05-10T01:54:02.388Z,2.00
2023-05-10T01:56:31.971Z,2.03
2023-05-10T01:59:00.223Z,2.10
2023-05-10T02:01:28.235Z,2.22
2023-05-10T02:03:56.324Z,2.28
2023-05-10T02:06:24.791Z,2.00
2023-05-10T02:08:55.637Z,2.20
2023-05-10T02:11:23.502Z,1.88
2023-05-10T02:13:52.694Z,2.10
2023-05-10T02:18:49.768Z,2.00
2023-05-10T02:21:17.831Z,2.22
2023-05-10T02:23:48.451Z,2.05
2023-05-10T02:26:17.032Z,2.40
2023-05-10T02:28:46.694Z,2.20
2023-05-10T02:31:14.203Z,2.67
2023-05-10T02:33:44.557Z,2.50
2023-05-10T02:36:18.399Z,2.00
2023-05-10T02:38:49.272Z,2.40
2023-05-10T02:41:16.351Z,2.55
2023-05-10T02:43:50.701Z,2.25
2023-05-10T02:46:19.937Z,2.40
2023-05-10T02:48:49.112Z,1.98
2023-05-10T02:53:50.520Z,2.00
2023-05-10T02:56:32.212Z,2.60
2023-05-10T02:58:58.943Z,2.17
2023-05-10T03:01:25.632Z,1.90
2023-05-10T03:03:54.982Z,2.47
2023-05-10T03:06:26.484Z,1.95
2023-05-10T03:08:55.657Z,2.10
2023-05-10T03:11:33.183Z,2.35
2023-05-10T03:14:18.593Z,2.30
2023-05-10T03:17:00.711Z,1.90
2023-05-10T03:19:42.637Z,2.30
2023-05-10T03:22:14.217Z,2.05
2023-05-10T03:24:42.266Z,2.20
2023-05-10T03:27:12.754Z,2.67
2023-05-10T03:29:40.637Z,2.55
2023-05-10T03:32:07.482Z,2.13
2023-05-10T03:34:34.054Z,2.22
2023-05-10T03:37:00.824Z,2.30
2023-05-10T03:39:30.156Z,2.42
2023-05-10T03:41:59.206Z,2.20
2023-05-10T03:46:52.460Z,1.73
2023-05-10T03:49:21.620Z,2.53
2023-05-10T03:54:14.548Z,2.17
2023-05-10T03:56:46.165Z,2.25
2023-05-10T03:59:17.356Z,2.45
2023-05-10T04:01:44.396Z,2.30
2023-05-10T04:04:13.396Z,2.72
2023-05-10T04:06:40.215Z,2.60
2023-05-10T04:09:06.887Z,2.17
2023-05-10T04:11:35.948Z,2.72
2023-05-10T04:16:32.112Z,2.63
2023-05-10T04:19:01.076Z,2.88
2023-05-10T04:21:29.891Z,3.00
2023-05-10T04:23:56.436Z,3.17
2023-05-10T04:26:27.572Z,3.10
2023-05-10T04:28:56.795Z,3.47
2023-05-10T04:31:25.724Z,3.00
2023-05-10T04:33:52.691Z,2.70
2023-05-10T04:36:22.378Z,2.50
2023-05-10T04:38:51.237Z,2.58
2023-05-10T04:41:20.146Z,2.53
2023-05-10T04:43:50.465Z,2.45
2023-05-10T04:46:19.218Z,2.40
2023-05-10T04:48:45.848Z,2.88
2023-05-10T04:51:12.548Z,2.63
2023-05-10T04:53:43.084Z,2.63
2023-05-10T04:56:15.997Z,3.10
2023-05-10T04:58:42.577Z,2.53
2023-05-10T05:01:09.527Z,3.10
2023-05-10T05:03:36.553Z,2.47
2023-05-10T05:06:03.929Z,2.42
2023-05-10T05:08:30.493Z,3.05
2023-05-10T05:10:57.099Z,3.22
2023-05-10T05:13:25.902Z,2.63
2023-05-10T05:15:52.705Z,2.90
2023-05-10T05:18:19.497Z,3.10
2023-05-10T05:20:46.077Z,2.72
2023-05-10T05:23:12.665Z,3.38
2023-05-10T05:25:43.825Z,3.15
2023-05-10T05:28:12.734Z,2.70
2023-05-10T05:30:39.306Z,2.85
2023-05-10T05:33:05.940Z,2.90
2023-05-10T05:35:32.513Z,2.83
2023-05-10T05:37:59.100Z,3.00
2023-05-10T05:40:27.983Z,2.75
2023-05-10T05:42:54.574Z,2.75
2023-05-10T05:45:23.567Z,2.95
2023-05-10T05:47:50.348Z,3.03
2023-05-10T05:50:19.244Z,3.08
2023-05-10T05:52:45.805Z,2.85
2023-05-10T05:55:12.895Z,2.60
2023-05-10T05:57:41.536Z,2.67
2023-05-10T06:00:08.769Z,2.95
2023-05-10T06:02:35.536Z,2.72
2023-05-10T06:05:02.281Z,3.03
2023-05-10T06:07:28.859Z,3.33
2023-05-10T06:09:55.591Z,2.80
2023-05-10T06:12:24.394Z,3.30
2023-05-10T06:14:54.033Z,2.53
2023-05-10T06:17:23.264Z,2.92
2023-05-10T06:19:49.805Z,2.88
2023-05-10T06:22:18.849Z,2.63
2023-05-10T06:27:19.045Z,2.40
2023-05-10T06:32:14.346Z,2.65
2023-05-10T06:34:41.016Z,3.33
2023-05-10T06:37:09.938Z,2.78
2023-05-10T06:39:36.532Z,2.72
2023-05-10T06:42:05.583Z,2.63
2023-05-10T06:47:01.304Z,2.40
2023-05-10T06:49:27.913Z,2.63
2023-05-10T06:51:57.166Z,2.50
2023-05-10T06:54:26.315Z,3.28
2023-05-10T06:56:55.179Z,2.30
2023-05-10T06:59:22.868Z,2.22
2023-05-10T07:01:54.814Z,2.97
2023-05-10T07:04:21.678Z,2.38
2023-05-10T07:06:48.576Z,2.35
2023-05-10T07:09:15.152Z,2.40
2023-05-10T07:11:44.219Z,2.13
2023-05-10T07:14:10.864Z,2.53
2023-05-10T07:16:40.302Z,2.90
2023-05-10T07:19:09.329Z,3.17
2023-05-10T07:24:03.495Z,2.72
2023-05-10T07:26:30.694Z,2.40
2023-05-10T07:28:57.396Z,2.50
2023-05-10T07:31:23.976Z,3.00
2023-05-10T07:33:53.082Z,2.50
2023-05-10T07:36:22.175Z,2.83
2023-05-10T07:38:48.764Z,2.63
2023-05-10T07:41:15.409Z,2.38
2023-05-10T07:43:44.704Z,2.00
2023-05-10T07:46:16.253Z,2.25
2023-05-10T07:48:45.100Z,2.42
2023-05-10T07:51:11.916Z,2.20
2023-05-10T07:53:41.545Z,2.78
2023-05-10T07:56:30.741Z,2.30
2023-05-10T07:58:57.850Z,2.13
2023-05-10T08:01:25.339Z,1.90
2023-05-10T08:03:52.566Z,2.40
2023-05-10T08:06:23.175Z,2.70
2023-05-10T08:08:51.524Z,2.08
2023-05-10T08:11:18.740Z,2.40
2023-05-10T08:13:48.761Z,2.47
2023-05-10T08:16:15.770Z,2.45
2023-05-10T08:18:42.556Z,2.28
2023-05-10T08:21:09.222Z,1.73
2023-05-10T08:23:36.078Z,1.98
2023-05-10T08:26:02.744Z,1.73
2023-05-10T08:28:29.571Z,2.28
2023-05-10T08:30:58.691Z,2.45
2023-05-10T08:33:26.349Z,1.83
2023-05-10T08:35:55.351Z,2.10
2023-05-10T08:38:22.002Z,2.00
2023-05-10T08:40:51.846Z,2.30
2023-05-10T08:43:19.395Z,1.83
2023-05-10T08:45:48.042Z,2.10
2023-05-10T08:48:15.196Z,1.77
2023-05-10T08:50:45.749Z,2.15
2023-05-10T08:53:16.059Z,2.65
2023-05-10T08:55:45.417Z,2.20
2023-05-10T08:58:12.129Z,1.90
2023-05-10T09:00:41.311Z,2.30
2023-05-10T09:03:08.208Z,2.10
2023-05-10T09:05:37.315Z,2.08
2023-05-10T09:08:04.291Z,2.15
2023-05-10T09:10:32.067Z,1.90
2023-05-10T09:12:59.638Z,1.70
2023-05-10T09:15:27.130Z,2.00
2023-05-10T09:17:56.570Z,2.10
2023-05-10T09:20:23.600Z,2.25
2023-05-10T09:22:52.492Z,1.70
2023-05-10T09:27:49.634Z,2.00
2023-05-10T09:30:27.457Z,1.95
2023-05-10T09:32:58.174Z,1.73
2023-05-10T09:35:29.458Z,2.10
2023-05-10T09:37:58.290Z,2.17
2023-05-10T09:40:26.648Z,2.05
2023-05-10T09:43:08.706Z,1.90
2023-05-10T09:45:38.538Z,1.95
2023-05-10T09:48:08.783Z,1.80
2023-05-10T09:50:37.756Z,2.30
2023-05-10T09:53:07.781Z,1.92
2023-05-10T09:55:39.652Z,1.85
2023-05-10T09:58:11.965Z,2.08
2023-05-10T10:00:40.607Z,2.15
2023-05-10T10:03:13.137Z,1.95
2023-05-10T10:05:45.106Z,2.03
2023-05-10T10:08:13.248Z,2.10
2023-05-10T10:10:46.942Z,2.22
2023-05-10T10:13:16.673Z,1.73
2023-05-10T10:15:45.281Z,1.95
2023-05-10T10:18:16.685Z,1.73
2023-05-10T10:20:43.856Z,1.77
2023-05-10T10:23:11.120Z,1.63
2023-05-10T10:25:41.403Z,1.75
2023-05-10T10:28:46.952Z,1.50
2023-05-10T10:31:25.668Z,1.83
2023-05-10T10:34:12.153Z,1.70
2023-05-10T10:36:48.128Z,1.60
2023-05-10T10:39:15.444Z,1.42
2023-05-10T10:41:54.974Z,1.67
2023-05-10T10:44:37.941Z,1.70
2023-05-10T10:47:15.552Z,1.27
2023-05-10T10:49:42.648Z,1.60
2023-05-10T10:52:24.109Z,1.50
2023-05-10T10:54:55.812Z,1.38
2023-05-10T10:57:27.677Z,1.23
2023-05-10T11:00:23.256Z,1.40
2023-05-10T11:03:00.975Z,1.83
2023-05-10T11:05:33.717Z,1.25
2023-05-10T11:08:01.406Z,1.50
2023-05-10T11:10:30.931Z,1.20
2023-05-10T11:13:07.384Z,1.20
2023-05-10T11:15:41.814Z,1.20
2023-05-10T11:18:28.541Z,1.23
2023-05-10T11:21:11.680Z,1.38
2023-05-10T11:23:41.358Z,1.60
2023-05-10T11:26:12.330Z,1.30
2023-05-10T11:28:50.018Z,1.52
2023-05-10T11:31:18.464Z,1.30
2023-05-10T11:33:51.067Z,1.20
2023-05-10T11:36:20.651Z,1.48
2023-05-10T11:38:48.702Z,1.38
2023-05-10T11:41:20.102Z,1.35
2023-05-10T11:43:56.763Z,1.27
2023-05-10T11:46:25.161Z,1.95
2023-05-10T11:48:58.891Z,1.30
2023-05-10T11:51:30.257Z,1.10
2023-05-10T11:53:58.260Z,1.10
2023-05-10T11:56:28.008Z,1.27
2023-05-10T11:58:56.991Z,1.20
2023-05-10T12:01:27.638Z,1.10
2023-05-10T12:03:59.925Z,1.10
2023-05-10T12:06:32.905Z,0.80
2023-05-10T12:09:04.824Z,1.00
2023-05-10T12:11:31.874Z,1.17
2023-05-10T12:13:58.946Z,1.13
2023-05-10T12:16:29.285Z,1.10
2023-05-10T12:19:00.931Z,0.90
2023-05-10T12:21:29.803Z,1.00
2023-05-10T12:26:30.463Z,1.30
2023-05-10T12:29:13.225Z,1.20
2023-05-10T12:31:59.754Z,1.30
2023-05-10T12:34:34.023Z,1.10
2023-05-10T12:37:03.611Z,1.20
2023-05-10T12:39:41.374Z,1.30
2023-05-10T12:42:14.129Z,1.13
2023-05-10T12:44:43.346Z,1.30
2023-05-10T12:47:10.031Z,1.20
2023-05-10T12:49:36.649Z,0.73
2023-05-10T12:52:07.898Z,1.30
2023-05-10T12:54:35.029Z,1.15
2023-05-10T12:57:02.041Z,1.17
2023-05-10T12:59:28.588Z,1.20
2023-05-10T13:02:00.358Z,1.13
2023-05-10T13:04:29.359Z,1.17
2023-05-10T13:07:00.004Z,0.98
2023-05-10T13:09:30.628Z,0.90
2023-05-10T13:11:59.910Z,1.10
2023-05-10T13:14:26.833Z,1.10
2023-05-10T13:16:53.499Z,1.10
2023-05-10T13:19:20.882Z,1.10
2023-05-10T13:21:48.116Z,0.90
2023-05-10T13:24:14.941Z,1.45
2023-05-10T13:26:42.107Z,0.90
2023-05-10T13:29:09.100Z,0.90
2023-05-10T13:31:38.484Z,0.90
2023-05-10T13:34:06.559Z,1.02
2023-05-10T13:36:33.134Z,0.90
2023-05-10T13:39:04.396Z,0.80
2023-05-10T13:41:31.031Z,0.93
2023-05-10T13:43:57.982Z,0.82
2023-05-10T13:46:26.898Z,1.00
2023-05-10T13:48:53.865Z,0.90
2023-05-10T13:51:20.502Z,0.93
2023-05-10T13:53:49.486Z,1.10
2023-05-10T13:56:16.299Z,1.20
2023-05-10T13:58:45.358Z,0.95
2023-05-10T14:01:14.489Z,0.90
2023-05-10T14:03:41.333Z,1.00
2023-05-10T14:06:08.778Z,1.08
2023-05-10T14:08:36.498Z,1.00
2023-05-10T14:11:05.513Z,0.70
2023-05-10T14:13:32.359Z,0.90
2023-05-10T14:16:01.476Z,1.00
2023-05-10T14:18:28.435Z,0.93
2023-05-10T14:20:55.639Z,1.10
2023-05-10T14:23:25.418Z,0.93
2023-05-10T14:25:53.426Z,1.15
2023-05-10T14:28:21.267Z,1.08
2023-05-10T14:30:52.667Z,0.85
2023-05-10T14:33:21.962Z,0.90
2023-05-10T14:35:51.550Z,0.70
2023-05-10T14:38:20.598Z,0.70
2023-05-10T14:40:47.173Z,1.10
2023-05-10T14:43:13.765Z,0.93
2023-05-10T14:45:40.423Z,0.90
2023-05-10T14:48:07.270Z,0.90
2023-05-10T14:50:37.148Z,0.70
2023-05-10T14:53:04.349Z,1.10
2023-05-10T14:55:39.363Z,0.90
2023-05-10T14:58:06.297Z,0.90
2023-05-10T15:00:35.330Z,1.00
2023-05-10T15:03:02.544Z,0.93
2023-05-10T15:05:29.508Z,1.10
2023-05-10T15:07:58.798Z,0.98
2023-05-10T15:10:26.269Z,0.82
2023-05-10T15:12:55.406Z,0.80
2023-05-10T15:15:21.995Z,0.85
2023-05-10T15:17:49.148Z,0.88
2023-05-10T15:20:15.774Z,0.63
2023-05-10T15:22:42.569Z,0.80
2023-05-10T15:25:14.184Z,1.15
2023-05-10T15:27:44.652Z,0.88
2023-05-10T15:30:14.275Z,0.80
2023-05-10T15:32:43.889Z,0.55
2023-05-10T15:35:42.378Z,0.80
2023-05-10T15:38:11.526Z,0.90
2023-05-10T15:40:38.079Z,0.70
2023-05-10T15:43:07.460Z,0.80
2023-05-10T15:45:35.921Z,1.13
2023-05-10T15:48:04.448Z,0.98
2023-05-10T15:50:33.572Z,0.73
2023-05-10T15:53:03.007Z,1.00
2023-05-10T15:55:35.332Z,0.85
2023-05-10T15:58:02.016Z,0.57
2023-05-10T16:00:31.363Z,0.80
2023-05-10T16:02:58.287Z,0.90
2023-05-10T16:05:25.128Z,0.68
2023-05-10T16:07:51.680Z,0.98
2023-05-10T16:10:25.619Z,0.70
2023-05-10T16:12:53.271Z,0.90
2023-05-10T16:15:21.800Z,0.80
2023-05-10T16:17:48.691Z,0.82
2023-05-10T16:20:20.114Z,0.80
2023-05-10T16:22:46.781Z,1.00
2023-05-10T16:25:16.610Z,1.35
2023-05-10T16:27:44.439Z,0.95
2023-05-10T16:30:14.353Z,0.82
2023-05-10T16:32:43.276Z,1.00
2023-05-10T16:35:12.266Z,0.90
2023-05-10T16:37:38.914Z,0.88
2023-05-10T16:40:08.789Z,1.00
2023-05-10T16:42:37.838Z,1.00
2023-05-10T16:45:07.741Z,1.15
2023-05-10T16:47:35.573Z,1.00
2023-05-10T16:50:03.314Z,0.90
2023-05-10T16:52:33.172Z,0.95
2023-05-10T16:54:59.927Z,1.08
2023-05-10T16:57:26.690Z,1.00
2023-05-10T16:59:56.623Z,1.35
2023-05-10T17:02:23.690Z,1.20
2023-05-10T17:04:56.165Z,1.10
2023-05-10T17:07:25.464Z,1.10
2023-05-10T17:09:52.939Z,1.30
2023-05-10T17:12:19.526Z,1.25
2023-05-10T17:14:46.135Z,1.25
2023-05-10T17:17:15.681Z,1.05
2023-05-10T17:19:45.377Z,2.15
2023-05-10T17:22:15.179Z,1.20
2023-05-10T17:24:41.874Z,1.13
2023-05-10T17:27:11.274Z,1.45
2023-05-10T17:29:40.155Z,1.10
2023-05-10T17:34:41.269Z,1.40
2023-05-10T17:37:10.384Z,1.20
2023-05-10T17:39:51.083Z,1.35
2023-05-10T17:42:20.953Z,1.20
2023-05-10T17:44:47.626Z,1.67
2023-05-10T17:47:14.197Z,1.33
2023-05-10T17:49:40.913Z,1.30
2023-05-10T17:52:07.559Z,1.42
2023-05-10T17:54:36.500Z,2.13
2023-05-10T17:59:31.761Z,1.40
2023-05-10T18:05:47.481Z,1.40
2023-05-10T18:08:30.232Z,1.40
2023-05-10T18:10:57.417Z,1.42
2023-05-10T18:23:36.240Z,1.42
2023-05-10T18:29:38.918Z,1.08
2023-05-10T18:36:38.222Z,1.20
2023-05-10T18:39:07.302Z,1.10
2023-05-10T18:41:39.850Z,1.38
2023-05-10T18:44:17.229Z,1.30
2023-05-10T18:46:44.034Z,1.13
2023-05-10T18:52:59.739Z,1.33
2023-05-10T18:55:28.902Z,1.40
2023-05-10T18:58:01.721Z,2.15
2023-05-10T19:04:16.406Z,1.50
2023-05-10T19:13:50.577Z,1.25
2023-05-10T19:16:23.413Z,1.55
2023-05-10T19:18:51.296Z,1.50
2023-05-10T19:21:20.656Z,1.10
2023-05-10T19:23:50.144Z,1.20
2023-05-10T19:26:16.757Z,1.48
2023-05-10T19:28:43.337Z,1.70
2023-05-10T19:31:12.252Z,1.17
2023-05-10T19:33:38.913Z,1.10
2023-05-10T19:36:05.607Z,1.30
2023-05-10T19:38:34.432Z,1.42
2023-05-10T19:41:03.225Z,1.27
2023-05-10T19:43:34.241Z,1.13
2023-05-10T19:46:06.506Z,1.25
2023-05-10T19:48:33.084Z,1.42
2023-05-10T19:51:10.018Z,1.40
2023-05-10T19:53:36.904Z,1.70
2023-05-10T19:56:09.183Z,1.23
2023-05-10T19:58:35.755Z,1.38
2023-05-10T20:01:02.930Z,1.30
2023-05-10T20:03:30.216Z,1.25
2023-05-10T20:05:56.790Z,1.60
2023-05-10T20:08:23.374Z,1.30
2023-05-10T20:10:49.954Z,1.30
2023-05-10T20:13:19.237Z,1.55
2023-05-10T20:15:46.718Z,1.50
2023-05-10T20:18:13.371Z,1.38
2023-05-10T20:20:46.220Z,1.50
2023-05-10T20:23:12.792Z,1.40
2023-05-10T20:25:39.375Z,1.20
2023-05-10T20:28:07.998Z,1.20
2023-05-10T20:30:34.585Z,1.42
2023-05-10T20:33:01.460Z,1.30
2023-05-10T20:35:28.056Z,1.20
2023-05-10T20:37:56.970Z,1.20
2023-05-10T20:40:23.634Z,1.50
2023-05-10T20:42:52.076Z,1.20
2023-05-10T20:45:21.822Z,1.40
2023-05-10T20:47:48.670Z,1.17
2023-05-10T20:50:15.497Z,1.20
2023-05-10T20:52:42.261Z,1.30
2023-05-10T20:55:09.550Z,1.30
2023-05-10T20:57:43.494Z,1.20
2023-05-10T21:00:10.548Z,1.65
2023-05-10T21:02:37.154Z,1.15
2023-05-10T21:05:03.963Z,1.65
2023-05-10T21:07:32.839Z,1.38
2023-05-10T21:10:01.710Z,1.52
2023-05-10T21:12:31.314Z,1.40
2023-05-10T21:15:02.660Z,1.48
2023-05-10T21:17:29.265Z,1.17
2023-05-10T21:19:55.851Z,1.40
2023-05-10T21:22:25.461Z,1.15
2023-05-10T21:24:52.094Z,1.20
2023-05-10T21:27:18.669Z,1.27
2023-05-10T21:29:45.812Z,1.40
2023-05-10T21:32:12.429Z,1.67
2023-05-10T21:34:38.985Z,1.60
2023-05-10T21:37:07.774Z,1.30
2023-05-10T21:39:37.071Z,1.17
2023-05-10T21:42:04.028Z,1.60
2023-05-10T21:44:31.860Z,1.23
2023-05-10T21:47:01.110Z,1.45
2023-05-10T21:49:27.721Z,1.35
2023-05-10T21:51:54.891Z,1.38
2023-05-10T21:54:23.804Z,1.45
2023-05-10T21:56:50.426Z,1.63
2023-05-10T21:59:18.255Z,1.30
2023-05-10T22:01:47.168Z,1.23
2023-05-10T22:04:16.789Z,1.08
2023-05-10T22:06:45.648Z,1.00
2023-05-10T22:09:12.204Z,1.20
2023-05-10T22:11:38.795Z,1.35
2023-05-10T22:14:07.634Z,1.40
2023-05-10T22:16:34.333Z,1.20
2023-05-10T22:19:01.231Z,1.33
2023-05-10T22:21:27.830Z,1.30
2023-05-10T22:23:54.440Z,1.48
2023-05-10T22:26:22.180Z,1.25
2023-05-10T22:28:51.005Z,1.35
2023-05-10T22:31:19.840Z,1.50
2023-05-10T22:33:48.790Z,1.27
2023-05-10T22:38:48.893Z,1.38
2023-05-10T22:41:17.835Z,1.17
2023-05-10T22:46:11.556Z,1.33
2023-05-10T22:48:38.239Z,1.13
2023-05-10T22:51:07.096Z,1.17
2023-05-10T22:53:36.087Z,1.27
2023-05-10T22:58:31.779Z,1.30
2023-05-10T23:01:00.964Z,1.30
2023-05-10T23:03:29.788Z,1.40
2023-05-10T23:05:56.365Z,1.33
2023-05-10T23:08:22.911Z,1.20
2023-05-10T23:10:49.529Z,2.08
2023-05-10T23:13:18.788Z,1.55
2023-05-10T23:15:46.607Z,1.15
2023-05-10T23:18:13.251Z,1.30
2023-05-10T23:20:45.307Z,1.52
2023-05-10T23:23:11.996Z,1.60
2023-05-10T23:25:38.845Z,1.50
2023-05-10T23:28:05.616Z,1.60
2023-05-10T23:30:32.259Z,1.20
2023-05-10T23:33:01.365Z,1.33
2023-05-10T23:35:31.005Z,1.38
2023-05-10T23:37:57.663Z,1.30
2023-05-10T23:40:26.569Z,1.42
2023-05-10T23:42:55.235Z,1.70
2023-05-10T23:45:24.601Z,1.42
2023-05-10T23:47:53.568Z,1.50
2023-05-10T23:52:49.716Z,1.25
2023-05-10T23:55:16.470Z,1.40
2023-05-10T23:57:43.635Z,1.67
